Time;durP1;ratioP1;P1;durP2;ratioP2;P2;SDS_P1;SDS_P2;PMS_P1;PMS_P2;Temp;Humidity;BMP_temperature;BMP_pressure;BME280_temperature;BME280_humidity;BME280_pressure;Samples;Min_cycle;Max_cycle;Signal;HPM_P1;HPM_P2
2022/11/12 00:01:41;;;;;;;6.53;4.60;;;;;;;11.66;61.73;98349.25;5028004;28;20197;-76
2022/11/12 00:04:26;;;;;;;7.13;4.30;;;;;;;11.70;61.86;98361.28;5027121;28;20201;-76
2022/11/12 00:07:11;;;;;;;7.20;5.13;;;;;;;11.67;63.18;98369.13;5027295;28;20638;-78
2022/11/12 00:09:57;;;;;;;6.93;4.47;;;;;;;11.46;62.37;98349.81;5027928;28;20183;-76
2022/11/12 00:12:43;;;;;;;6.50;3.90;;;;;;;11.53;62.93;98345.28;5026956;28;20259;-76
2022/11/12 00:15:28;;;;;;;5.60;4.17;;;;;;;11.59;61.59;98351.16;5027278;28;20209;-76
2022/11/12 00:18:13;;;;;;;8.17;4.47;;;;;;;11.65;61.97;98340.59;5027537;28;20186;-76
2022/11/12 00:20:59;;;;;;;5.87;4.73;;;;;;;11.62;61.77;98356.28;5026705;28;20201;-76
2022/11/12 00:23:44;;;;;;;5.27;4.00;;;;;;;11.69;61.73;98354.38;5027499;28;20245;-76
2022/11/12 00:26:29;;;;;;;6.73;4.20;;;;;;;11.68;61.70;98344.91;5027304;28;20273;-76
2022/11/12 00:29:14;;;;;;;5.73;4.07;;;;;;;11.39;60.49;98349.16;5026685;28;20203;-75
2022/11/12 00:31:59;;;;;;;5.67;4.37;;;;;;;11.44;60.44;98355.03;5027546;28;20201;-76
2022/11/12 00:34:45;;;;;;;6.47;4.00;;;;;;;11.47;60.87;98361.91;5026904;28;20193;-76
2022/11/12 00:37:30;;;;;;;6.17;4.20;;;;;;;11.26;61.31;98365.94;5026790;28;20198;-75
2022/11/12 00:40:15;;;;;;;6.47;4.17;;;;;;;11.28;61.14;98360.69;5027416;28;20197;-74
2022/11/12 00:43:00;;;;;;;8.27;5.13;;;;;;;11.28;61.13;98330.44;5026644;28;20324;-76
2022/11/12 00:45:45;;;;;;;7.67;4.47;;;;;;;11.36;61.23;98353.56;5026851;28;20199;-74
2022/11/12 00:48:31;;;;;;;8.33;5.37;;;;;;;11.30;60.95;98340.75;5027316;28;20667;-74
2022/11/12 00:51:16;;;;;;;8.67;5.80;;;;;;;11.34;61.08;98339.78;5026187;28;20252;-76
2022/11/12 00:54:02;;;;;;;8.37;5.20;;;;;;;11.13;62.41;98335.19;5026967;28;20222;-74
2022/11/12 00:56:48;;;;;;;6.50;5.03;;;;;;;11.05;61.58;98296.50;5027192;28;20321;-74
2022/11/12 00:59:33;;;;;;;6.97;5.33;;;;;;;11.33;61.69;98343.28;5026236;28;20217;-74
2022/11/12 01:02:21;;;;;;;7.57;4.83;;;;;;;11.43;61.14;98327.41;5027042;28;20198;-74
2022/11/12 01:05:06;;;;;;;8.57;5.60;;;;;;;11.31;60.91;98334.69;5026838;28;20328;-74
2022/11/12 01:07:51;;;;;;;6.90;5.33;;;;;;;11.17;60.51;98335.06;5026487;28;20269;-74
2022/11/12 01:10:40;;;;;;;6.20;5.03;;;;;;;11.22;61.45;98334.94;5027007;28;20337;-73
2022/11/12 01:13:25;;;;;;;9.87;5.33;;;;;;;11.09;61.75;98329.22;5026095;28;20632;-73
2022/11/12 01:16:18;;;;;;;8.57;4.67;;;;;;;11.18;60.68;98326.41;5029541;28;20205;-73
2022/11/12 01:19:07;;;;;;;7.00;4.97;;;;;;;11.38;60.22;98320.63;5031237;28;20209;-73
2022/11/12 01:21:52;;;;;;;8.47;5.20;;;;;;;11.41;59.64;98308.47;5030572;28;20241;-73
2022/11/12 01:24:38;;;;;;;7.83;4.60;;;;;;;11.51;60.23;98326.34;5030744;28;20705;-73
2022/11/12 01:27:23;;;;;;;6.97;4.87;;;;;;;11.40;59.58;98311.06;5030894;28;20841;-74
2022/11/12 01:30:09;;;;;;;6.67;4.97;;;;;;;11.33;59.93;98317.34;5030026;28;20213;-73
2022/11/12 01:32:55;;;;;;;8.20;5.57;;;;;;;11.30;59.17;98318.28;5030466;28;20878;-74
2022/11/12 01:35:41;;;;;;;6.67;4.30;;;;;;;11.43;59.42;98313.59;5030716;28;20187;-74
2022/11/12 01:38:26;;;;;;;6.73;4.57;;;;;;;11.48;59.98;98299.59;5030013;28;20206;-74
2022/11/12 01:41:16;;;;;;;6.03;4.17;;;;;;;11.50;58.69;98296.94;5030805;28;20194;-74
2022/11/12 01:44:23;;;;;;;7.67;4.27;;;;;;;11.45;59.06;98301.44;5030217;28;20685;-74
2022/11/12 01:47:23;;;;;;;6.63;3.93;;;;;;;11.38;60.00;98300.75;5029715;28;20277;-75
2022/11/12 01:50:32;;;;;;;5.07;3.77;;;;;;;11.39;59.52;98302.47;5030582;28;20219;-76
2022/11/12 01:53:19;;;;;;;5.57;4.10;;;;;;;11.21;60.71;98302.97;5030567;28;20218;-74
2022/11/12 01:56:06;;;;;;;5.70;4.27;;;;;;;11.13;61.11;98299.75;5029402;28;20264;-74
2022/11/12 01:58:58;;;;;;;7.33;4.80;;;;;;;11.11;62.51;98300.66;5030312;28;20698;-73
2022/11/12 02:01:43;;;;;;;7.33;4.63;;;;;;;11.12;62.63;98305.84;5029949;28;20276;-74
2022/11/12 02:04:30;;;;;;;7.73;4.30;;;;;;;11.08;62.20;98300.78;5029566;28;20650;-73
2022/11/12 02:07:17;;;;;;;5.73;3.67;;;;;;;11.16;61.12;98309.19;5030292;28;20195;-73
2022/11/12 02:10:05;;;;;;;4.70;3.77;;;;;;;11.33;61.51;98307.81;5029839;28;20690;-74
2022/11/12 02:15:57;;;;;;;6.60;3.60;;;;;;;10.99;63.56;98298.41;5030130;28;20194;-74
2022/11/12 02:18:42;;;;;;;4.43;2.87;;;;;;;10.89;63.36;98292.63;5029755;28;20205;-73
2022/11/12 02:21:29;;;;;;;3.70;2.83;;;;;;;10.94;62.81;98303.72;5029290;28;20193;-74
2022/11/12 02:24:14;;;;;;;5.30;3.13;;;;;;;11.02;62.80;98301.78;5030011;28;20197;-73
2022/11/12 02:26:59;;;;;;;4.17;2.97;;;;;;;11.16;62.75;98304.84;5029159;28;20202;-73
2022/11/12 02:29:45;;;;;;;3.00;2.37;;;;;;;11.28;63.14;98301.91;5029153;28;20195;-73
2022/11/12 02:32:31;;;;;;;2.87;2.27;;;;;;;11.21;61.71;98310.75;5029610;28;20264;-73
2022/11/12 02:35:17;;;;;;;3.20;2.30;;;;;;;11.07;61.65;98305.09;5028918;28;20611;-73
2022/11/12 02:38:03;;;;;;;4.03;2.20;;;;;;;11.01;61.44;98289.72;5029515;28;20734;-73
2022/11/12 02:40:48;;;;;;;2.47;1.93;;;;;;;11.20;61.12;98290.06;5029471;28;20198;-73
2022/11/12 02:43:33;;;;;;;2.93;1.90;;;;;;;10.94;61.04;98292.53;5028485;28;20223;-74
2022/11/12 02:46:19;;;;;;;3.43;2.30;;;;;;;10.99;61.38;98291.50;5029727;28;20190;-74
2022/11/12 02:49:04;;;;;;;1.87;1.77;;;;;;;10.90;58.70;98285.72;5029226;28;20673;-74
2022/11/12 02:51:50;;;;;;;2.77;1.73;;;;;;;10.98;58.69;98281.19;5028863;28;20217;-74
2022/11/12 02:54:35;;;;;;;3.17;2.40;;;;;;;10.99;60.30;98285.47;5029795;28;20287;-74
2022/11/12 02:57:20;;;;;;;5.13;3.50;;;;;;;11.09;62.68;98279.97;5028859;28;20193;-74
2022/11/12 03:00:11;;;;;;;9.33;4.20;;;;;;;11.28;63.42;98299.31;5028864;28;20384;-74
2022/11/12 03:03:00;;;;;;;10.67;4.63;;;;;;;11.28;63.15;98299.31;5029648;28;20202;-74
2022/11/12 03:05:57;;;;;;;9.70;4.30;;;;;;;11.19;63.88;98278.81;5028655;28;20195;-74
2022/11/12 03:08:43;;;;;;;2.03;1.60;;;;;;;11.20;58.76;98305.59;5028871;28;20198;-74
2022/11/12 03:11:28;;;;;;;2.00;1.80;;;;;;;11.14;58.13;98304.03;5029282;28;20186;-74
2022/11/12 03:14:14;;;;;;;2.10;1.90;;;;;;;11.17;58.45;98303.13;5028149;28;20699;-74
2022/11/12 03:16:59;;;;;;;2.27;1.90;;;;;;;11.07;59.16;98307.69;5028914;28;20202;-74
2022/11/12 03:19:44;;;;;;;3.30;2.30;;;;;;;11.10;58.43;98294.66;5028870;28;20205;-74
2022/11/12 03:22:30;;;;;;;2.40;1.93;;;;;;;11.16;58.82;98304.84;5028157;28;20194;-73
2022/11/12 03:25:15;;;;;;;2.87;1.60;;;;;;;11.27;60.77;98313.16;5029185;28;20225;-74
2022/11/12 03:28:06;;;;;;;2.80;2.10;;;;;;;11.00;59.85;98328.66;5028445;28;20214;-74
2022/11/12 03:30:56;;;;;;;2.23;1.93;;;;;;;10.85;61.18;98319.53;5027907;28;20197;-73
2022/11/12 03:33:42;;;;;;;2.17;1.80;;;;;;;10.59;62.33;98329.72;5028909;28;20226;-73
2022/11/12 03:36:27;;;;;;;2.80;2.33;;;;;;;10.59;62.79;98317.59;5028403;28;20194;-74
2022/11/12 03:39:12;;;;;;;3.27;2.60;;;;;;;10.65;62.79;98314.84;5027536;28;20216;-74
2022/11/12 03:41:57;;;;;;;3.27;2.50;;;;;;;10.63;62.93;98313.22;5029003;28;20195;-74
2022/11/12 03:44:42;;;;;;;4.00;3.40;;;;;;;10.68;62.78;98300.97;5027662;28;20208;-74
2022/11/12 03:47:29;;;;;;;2.83;2.20;;;;;;;10.91;62.78;98329.72;5027934;28;20206;-74
2022/11/12 03:50:17;;;;;;;2.43;2.20;;;;;;;10.81;62.19;98354.19;5028290;28;20289;-73
2022/11/12 03:53:03;;;;;;;3.13;2.40;;;;;;;10.75;61.36;98331.03;5027180;28;20309;-74
2022/11/12 03:55:48;;;;;;;3.53;2.70;;;;;;;10.66;62.71;98318.28;5027997;28;20190;-74
2022/11/12 03:58:33;;;;;;;4.27;2.97;;;;;;;10.67;62.60;98327.78;5044603;28;20221;-74
2022/11/12 04:01:18;;;;;;;3.07;2.30;;;;;;;10.71;62.33;98329.41;5067202;28;20195;-73
2022/11/12 04:04:04;;;;;;;3.77;1.90;;;;;;;10.77;61.44;98321.47;5068141;28;20204;-75
2022/11/12 04:09:53;;;;;;;3.30;2.70;;;;;;;10.93;62.04;98322.75;5066975;28;20773;-75
2022/11/12 04:15:42;;;;;;;3.93;2.20;;;;;;;10.83;60.46;98339.44;5067594;28;20196;-75
2022/11/12 04:21:50;;;;;;;2.73;1.90;;;;;;;10.51;62.67;98332.47;5067456;28;20607;-75
2022/11/12 04:27:41;;;;;;;2.10;1.87;;;;;;;10.51;62.34;98332.47;5066566;28;20181;-75
2022/11/12 04:30:27;;;;;;;2.07;1.83;;;;;;;10.37;62.46;98341.47;5067109;28;20189;-74
2022/11/12 04:33:12;;;;;;;2.50;2.20;;;;;;;10.33;62.66;98329.50;5066744;28;20331;-74
2022/11/12 04:35:57;;;;;;;2.60;2.30;;;;;;;10.48;61.74;98349.84;5066363;28;20193;-74
2022/11/12 04:38:43;;;;;;;2.77;2.40;;;;;;;10.57;61.33;98347.03;5067309;28;20208;-74
2022/11/12 04:47:38;;;;;;;3.30;2.03;;;;;;;10.34;62.13;98336.38;5067072;28;20197;-74
2022/11/12 04:50:23;;;;;;;3.93;2.77;;;;;;;10.38;62.40;98345.78;5065656;28;20225;-74
2022/11/12 04:53:09;;;;;;;4.37;2.97;;;;;;;10.31;62.25;98341.63;5065998;28;20223;-74
2022/11/12 04:55:57;;;;;;;4.20;2.87;;;;;;;10.28;61.99;98337.38;5067110;28;20298;-73
2022/11/12 04:58:44;;;;;;;3.07;2.73;;;;;;;10.28;62.80;98352.91;5066426;28;20200;-73
2022/11/12 05:01:30;;;;;;;4.40;2.50;;;;;;;10.23;61.71;98343.53;5066170;28;20185;-74
2022/11/12 05:04:15;;;;;;;5.77;3.37;;;;;;;10.25;61.86;98362.47;5067211;28;20193;-73
2022/11/12 05:07:01;;;;;;;4.73;2.90;;;;;;;10.29;61.64;98359.78;5066464;28;20714;-76
2022/11/12 05:09:47;;;;;;;3.10;2.80;;;;;;;10.21;62.00;98363.44;5066571;28;20196;-75
2022/11/12 05:12:32;;;;;;;3.23;2.60;;;;;;;10.22;62.03;98357.41;5066862;28;20258;-77
2022/11/12 05:15:17;;;;;;;3.33;2.57;;;;;;;10.34;61.48;98357.97;5066186;28;20208;-76
2022/11/12 05:18:03;;;;;;;4.20;3.37;;;;;;;10.33;62.58;98369.19;5066801;28;20189;-75
2022/11/12 05:20:50;;;;;;;4.00;2.87;;;;;;;10.14;63.73;98372.25;5066866;28;20280;-75
2022/11/12 05:23:38;;;;;;;5.60;4.00;;;;;;;10.13;63.59;98373.13;5066066;28;20185;-74
2022/11/12 05:26:23;;;;;;;5.10;3.77;;;;;;;9.71;65.38;98352.44;5066434;28;20181;-75
2022/11/12 05:29:09;;;;;;;4.87;3.60;;;;;;;9.97;65.88;98385.53;5066465;28;20201;-73
2022/11/12 05:31:54;;;;;;;5.27;3.57;;;;;;;9.89;66.36;98387.44;5065977;28;20625;-74
2022/11/12 05:34:40;;;;;;;4.27;3.13;;;;;;;10.01;65.59;98384.59;5066893;28;20224;-73
2022/11/12 05:37:25;;;;;;;4.93;3.20;;;;;;;9.96;67.59;98380.38;5065807;28;20196;-73
2022/11/12 05:40:11;;;;;;;6.03;3.47;;;;;;;10.04;65.85;98381.06;5051966;28;20583;-73
2022/11/12 05:42:56;;;;;;;4.23;2.60;;;;;;;9.95;66.45;98396.78;5047031;28;20198;-73
2022/11/12 05:45:43;;;;;;;5.93;3.40;;;;;;;10.09;63.46;98395.63;5045742;28;20225;-74
2022/11/12 05:48:28;;;;;;;3.93;2.90;;;;;;;10.04;63.98;98384.50;5046450;28;20193;-73
2022/11/12 05:51:14;;;;;;;4.83;2.30;;;;;;;10.12;63.06;98405.09;5046335;28;20236;-73
2022/11/12 05:54:00;;;;;;;4.87;3.30;;;;;;;10.16;61.59;98401.53;5044202;28;20299;-73
2022/11/12 05:56:46;;;;;;;3.70;2.77;;;;;;;10.25;62.54;98388.38;5046314;28;20804;-73
2022/11/12 05:59:31;;;;;;;3.40;2.23;;;;;;;10.23;63.03;98395.31;5046140;28;20204;-74
2022/11/12 06:02:16;;;;;;;4.80;3.07;;;;;;;10.32;64.37;98396.00;5048160;28;20247;-74
2022/11/12 06:05:02;;;;;;;3.60;2.30;;;;;;;10.33;63.48;98404.59;5050229;28;20657;-73
2022/11/12 06:07:48;;;;;;;3.03;2.53;;;;;;;10.38;64.36;98406.19;5049609;28;20279;-73
2022/11/12 06:10:33;;;;;;;4.17;3.60;;;;;;;10.29;64.57;98402.94;5049360;28;20987;-73
2022/11/12 06:13:21;;;;;;;3.40;2.70;;;;;;;10.27;64.83;98426.28;5050325;28;20220;-74
2022/11/12 06:16:07;;;;;;;4.30;3.30;;;;;;;10.40;64.40;98432.91;5049149;28;20234;-74
2022/11/12 06:18:52;;;;;;;5.33;2.37;;;;;;;10.47;64.25;98433.59;5049489;28;20198;-74
2022/11/12 06:21:38;;;;;;;2.67;2.27;;;;;;;10.48;64.17;98431.00;5049579;28;20328;-74
2022/11/12 06:24:23;;;;;;;3.13;2.67;;;;;;;10.70;64.83;98449.47;5048814;28;20194;-74
2022/11/12 06:27:08;;;;;;;3.37;2.60;;;;;;;10.61;64.16;98437.56;5049736;28;20197;-75
2022/11/12 06:29:54;;;;;;;3.87;2.30;;;;;;;10.58;62.52;98450.63;5049242;28;20205;-73
2022/11/12 06:32:39;;;;;;;3.23;2.37;;;;;;;10.19;65.09;98430.78;5048555;28;20230;-73
2022/11/12 06:35:25;;;;;;;3.03;2.30;;;;;;;9.89;65.40;98415.03;5034028;28;20241;-74
2022/11/12 06:38:11;;;;;;;3.10;2.60;;;;;;;10.17;66.78;98455.88;5048732;28;20209;-75
2022/11/12 06:40:57;;;;;;;3.50;2.70;;;;;;;10.19;65.97;98459.28;5048538;28;20270;-74
2022/11/12 06:43:42;;;;;;;3.43;2.73;;;;;;;10.24;67.07;98459.19;5049621;28;20285;-73
2022/11/12 06:46:27;;;;;;;2.93;2.30;;;;;;;10.19;66.04;98454.09;5048133;28;20275;-72
2022/11/12 06:49:12;;;;;;;7.47;4.83;;;;;;;10.20;67.22;98447.19;5048921;28;20307;-74
2022/11/12 06:51:58;;;;;;;3.50;2.53;;;;;;;10.31;66.80;98455.56;5048890;28;20611;-73
2022/11/12 06:54:43;;;;;;;3.93;3.07;;;;;;;10.31;67.42;98450.38;5048107;28;20263;-75
2022/11/12 06:57:30;;;;;;;8.93;4.80;;;;;;;10.49;68.28;98456.00;5048964;28;20200;-74
2022/11/12 07:00:16;;;;;;;2.73;2.30;;;;;;;10.39;66.48;98448.47;5047281;28;20295;-74
2022/11/12 07:03:06;;;;;;;4.53;2.43;;;;;;;10.06;67.61;98455.19;5047846;28;20190;-74
2022/11/12 07:05:52;;;;;;;3.67;2.73;;;;;;;10.13;69.79;98454.22;5048901;28;20677;-75
2022/11/12 07:08:38;;;;;;;6.83;4.40;;;;;;;10.08;69.64;98452.56;5048152;28;20197;-74
2022/11/12 07:11:23;;;;;;;9.40;4.27;;;;;;;10.20;70.72;98452.38;5048148;28;20189;-75
2022/11/12 07:14:09;;;;;;;5.43;3.87;;;;;;;10.11;68.75;98405.97;5047896;28;20727;-73
2022/11/12 07:16:54;;;;;;;7.10;3.67;;;;;;;10.55;70.16;98449.84;5049526;28;20190;-73
2022/11/12 07:19:39;;;;;;;8.13;4.27;;;;;;;10.68;71.37;98447.78;5047211;28;20221;-74
2022/11/12 07:22:25;;;;;;;6.87;3.67;;;;;;;10.56;70.77;98442.03;5047021;28;20644;-74
2022/11/12 07:25:10;;;;;;;5.57;2.73;;;;;;;10.34;67.67;98447.72;5046650;28;20315;-75
2022/11/12 07:27:55;;;;;;;3.40;2.73;;;;;;;10.35;69.77;98447.69;5045390;28;20204;-74
2022/11/12 07:30:41;;;;;;;4.13;3.50;;;;;;;10.38;70.98;98441.59;5047838;28;20182;-73
2022/11/12 07:33:27;;;;;;;14.10;8.93;;;;;;;10.38;73.09;98431.22;5046027;28;20298;-74
2022/11/12 07:36:15;;;;;;;4.77;3.67;;;;;;;10.38;70.07;98439.00;5048642;28;20186;-73
2022/11/12 07:39:01;;;;;;;5.23;3.57;;;;;;;10.41;70.72;98444.09;5047449;28;20196;-73
2022/11/12 07:41:46;;;;;;;6.60;3.63;;;;;;;10.37;70.31;98447.66;5047515;28;20583;-73
2022/11/12 07:44:31;;;;;;;7.70;4.10;;;;;;;10.16;73.43;98451.56;5047995;28;20291;-73
2022/11/12 07:47:16;;;;;;;6.00;3.97;;;;;;;10.14;73.81;98437.78;5046681;28;20667;-72
2022/11/12 07:50:02;;;;;;;4.47;2.70;;;;;;;9.93;71.87;98427.03;5047096;28;20734;-73
2022/11/12 07:52:48;;;;;;;6.77;3.43;;;;;;;10.02;72.58;98443.22;5046170;28;20369;-73
2022/11/12 07:55:33;;;;;;;5.80;3.57;;;;;;;10.19;74.84;98440.28;5045548;28;20611;-73
2022/11/12 07:58:19;;;;;;;9.93;5.37;;;;;;;10.44;76.04;98433.69;5041664;28;20202;-74
2022/11/12 08:01:17;;;;;;;9.50;7.17;;;;;;;10.43;76.16;98445.78;5029699;28;20214;-74
2022/11/12 08:04:05;;;;;;;12.03;7.23;;;;;;;10.62;76.29;98438.44;5037729;28;20214;-74
2022/11/12 08:06:51;;;;;;;12.40;7.77;;;;;;;10.62;77.49;98433.25;5047304;28;20270;-75
2022/11/12 08:09:36;;;;;;;10.90;7.23;;;;;;;10.64;77.71;98423.69;5046812;28;20209;-74
2022/11/12 08:12:22;;;;;;;12.20;8.73;;;;;;;10.59;77.29;98438.53;5059229;28;20194;-76
2022/11/12 08:15:08;;;;;;;11.77;7.97;;;;;;;10.70;77.26;98440.81;5056601;28;20236;-73
2022/11/12 08:17:53;;;;;;;14.00;9.00;;;;;;;10.79;78.19;98436.28;5037504;28;20228;-73
2022/11/12 08:20:38;;;;;;;13.30;7.17;;;;;;;10.87;77.63;98441.28;5046481;28;20279;-71
2022/11/12 08:23:24;;;;;;;9.60;7.43;;;;;;;10.58;76.92;98429.03;5065625;28;20212;-78
2022/11/12 08:26:12;;;;;;;8.93;7.00;;;;;;;10.72;77.39;98441.63;5065312;28;20254;-78
2022/11/12 08:28:57;;;;;;;13.40;7.37;;;;;;;10.79;78.23;98441.47;5066654;28;20714;-76
2022/11/12 08:31:47;;;;;;;13.33;7.80;;;;;;;11.02;78.79;98451.28;5050553;28;20193;-77
2022/11/12 08:34:32;;;;;;;14.00;8.30;;;;;;;11.16;77.95;98449.19;5045746;28;20783;-75
2022/11/12 08:37:17;;;;;;;12.67;8.00;;;;;;;11.01;79.13;98445.25;5046998;28;20738;-76
2022/11/12 08:40:02;;;;;;;12.30;7.90;;;;;;;11.13;79.48;98444.06;5046639;28;20189;-77
2022/11/12 08:42:55;;;;;;;17.03;9.17;;;;;;;11.26;79.86;98451.50;5045984;28;20723;-75
2022/11/12 08:45:41;;;;;;;13.30;9.07;;;;;;;11.36;79.19;98449.50;5047064;28;20186;-77
2022/11/12 08:48:28;;;;;;;15.83;7.63;;;;;;;11.52;79.50;98452.56;5045544;28;20370;-79
2022/11/12 08:51:14;;;;;;;11.30;8.37;;;;;;;11.59;79.53;98454.94;5045993;28;20668;-79
2022/11/12 08:53:59;;;;;;;10.97;7.50;;;;;;;11.66;79.18;98461.72;5046827;28;20699;-77
2022/11/12 08:56:44;;;;;;;10.27;8.13;;;;;;;11.74;79.66;98445.94;5046273;28;20208;-77
2022/11/12 08:59:30;;;;;;;15.83;8.40;;;;;;;11.78;80.07;98439.75;5045985;28;20192;-78
2022/11/12 09:02:16;;;;;;;9.67;6.63;;;;;;;11.75;79.00;98439.81;5046650;28;20194;-78
2022/11/12 09:05:01;;;;;;;10.77;7.07;;;;;;;11.72;78.82;98439.94;5045456;28;20248;-77
2022/11/12 09:07:46;;;;;;;13.23;7.53;;;;;;;11.68;79.24;98433.97;5046359;28;20188;-78
2022/11/12 09:10:36;;;;;;;11.50;7.67;;;;;;;11.57;79.87;98442.91;5046178;28;20197;-78
2022/11/12 09:13:21;;;;;;;7.93;5.87;;;;;;;11.38;79.83;98452.91;5089822;28;20586;-78
2022/11/12 09:16:08;;;;;;;11.47;8.80;;;;;;;11.53;80.63;98464.63;5046633;28;20236;-78
2022/11/12 09:18:53;;;;;;;15.13;10.07;;;;;;;11.62;80.24;98460.06;5046315;28;20183;-78
2022/11/12 09:21:39;;;;;;;13.43;9.27;;;;;;;11.70;79.65;98463.34;5045529;28;20183;-78
2022/11/12 09:24:24;;;;;;;12.53;8.00;;;;;;;11.59;79.03;98452.34;5046294;28;20178;-77
2022/11/12 09:27:09;;;;;;;11.30;7.30;;;;;;;11.63;78.96;98460.91;5045439;28;20792;-77
2022/11/12 09:29:55;;;;;;;12.37;7.27;;;;;;;11.66;79.13;98434.88;5045665;28;20186;-78
2022/11/12 09:33:20;;;;;;;10.77;6.60;;;;;;;11.91;78.98;98454.09;5037037;28;20250;-78
2022/11/12 09:36:07;;;;;;;13.20;7.00;;;;;;;11.90;79.57;98454.97;5026443;28;20346;-78
2022/11/12 09:38:52;;;;;;;11.43;8.63;;;;;;;11.83;79.91;98449.09;5029144;28;20187;-78
2022/11/12 09:41:39;;;;;;;14.00;7.93;;;;;;;11.71;80.88;98454.63;5029852;28;20192;-79
2022/11/12 09:44:25;;;;;;;10.10;6.53;;;;;;;11.58;81.21;98457.59;5060965;28;20344;-78
2022/11/12 09:47:25;;;;;;;11.37;7.30;;;;;;;11.52;81.21;98462.94;5028167;28;20678;-79
2022/11/12 09:50:31;;;;;;;14.07;9.70;;;;;;;11.60;82.16;98455.81;5036603;28;20629;-79
2022/11/12 09:53:21;;;;;;;9.73;7.60;;;;;;;11.45;81.78;98452.75;5048764;28;20209;-79
2022/11/12 09:56:11;;;;;;;12.27;9.10;;;;;;;11.60;82.44;98451.47;5049051;28;20229;-78
2022/11/12 09:58:57;;;;;;;17.00;10.33;;;;;;;11.65;82.36;98446.13;5049761;28;20696;-78
2022/11/12 10:01:53;;;;;;;14.40;9.37;;;;;;;11.67;80.88;98432.25;5035936;28;20191;-79
2022/11/12 10:04:54;;;;;;;11.50;7.87;;;;;;;11.71;80.44;98444.25;5048812;28;20238;-78
2022/11/12 10:07:45;;;;;;;13.27;8.67;;;;;;;11.68;81.05;98438.31;5049042;28;20205;-79
2022/11/12 10:10:39;;;;;;;12.13;9.10;;;;;;;11.65;82.19;98448.72;5047306;28;20659;-78
2022/11/12 10:13:34;;;;;;;19.23;11.90;;;;;;;11.62;81.49;98454.88;5048435;28;20187;-78
2022/11/12 10:16:49;;;;;;;16.80;12.10;;;;;;;11.62;81.06;98433.25;5029012;28;20371;-78
2022/11/12 10:19:43;;;;;;;18.07;11.63;;;;;;;11.68;81.43;98444.38;5029179;28;20193;-77
2022/11/12 10:22:52;;;;;;;16.17;10.80;;;;;;;11.45;81.40;98431.97;5040649;28;20191;-79
2022/11/12 10:25:41;;;;;;;14.23;10.47;;;;;;;11.61;81.19;98447.97;5028985;28;20243;-77
2022/11/12 10:28:40;;;;;;;15.83;9.30;;;;;;;11.61;81.45;98453.16;5028851;28;20191;-78
2022/11/12 10:31:26;;;;;;;15.37;10.30;;;;;;;11.63;81.64;98453.09;5042875;28;20209;-78
2022/11/12 10:34:23;;;;;;;15.83;10.33;;;;;;;11.38;83.47;98466.75;5028994;28;20238;-79
2022/11/12 10:37:40;;;;;;;17.03;10.50;;;;;;;11.41;81.11;98466.69;5028936;28;20644;-80
2022/11/12 10:40:34;;;;;;;16.33;8.97;;;;;;;11.42;82.58;98477.88;5046060;28;20224;-79
2022/11/12 10:43:22;;;;;;;12.17;8.43;;;;;;;11.32;82.20;98472.09;5048404;28;20586;-79
2022/11/12 10:46:30;;;;;;;10.37;7.53;;;;;;;11.14;83.22;98463.94;5048661;28;20191;-78
2022/11/12 10:49:16;;;;;;;12.97;8.50;;;;;;;11.36;82.75;98473.72;5047059;28;20573;-78
2022/11/12 10:52:01;;;;;;;10.53;8.00;;;;;;;11.41;82.04;98466.69;5048451;28;20186;-78
2022/11/12 10:54:46;;;;;;;11.47;7.83;;;;;;;11.33;82.46;98462.59;5048343;28;20728;-78
2022/11/12 10:57:39;;;;;;;12.53;7.33;;;;;;;11.44;82.90;98463.13;5047543;28;20214;-78
2022/11/12 11:00:24;;;;;;;12.30;7.50;;;;;;;11.49;82.85;98466.47;5048330;28;20759;-78
2022/11/12 11:03:22;;;;;;;11.43;7.13;;;;;;;11.63;82.36;98459.16;5048081;28;20567;-79
2022/11/12 11:06:26;;;;;;;9.87;7.03;;;;;;;11.47;82.55;98460.47;5047518;28;20203;-80
2022/11/12 11:09:11;;;;;;;11.27;7.60;;;;;;;11.66;82.69;98455.63;5048168;28;21119;-79
2022/11/12 11:11:57;;;;;;;11.37;7.97;;;;;;;11.74;82.47;98464.09;5048308;28;20219;-79
2022/11/12 11:14:43;;;;;;;12.53;7.97;;;;;;;11.81;82.62;98455.25;5047382;28;20307;-78
2022/11/12 11:17:30;;;;;;;8.90;7.37;;;;;;;11.88;82.25;98459.34;5047593;28;20182;-78
2022/11/12 11:20:19;;;;;;;10.90;7.80;;;;;;;11.90;81.66;98463.63;5047734;28;20189;-78
2022/11/12 11:23:19;;;;;;;9.10;5.73;;;;;;;11.81;81.75;98460.44;5059667;28;20182;-78
2022/11/12 11:26:28;;;;;;;9.80;5.83;;;;;;;11.61;82.81;98460.94;5047752;28;20193;-78
2022/11/12 11:29:26;;;;;;;9.60;6.50;;;;;;;11.53;83.09;98447.34;5047544;28;20265;-78
2022/11/12 11:32:20;;;;;;;11.20;6.57;;;;;;;11.58;82.77;98452.41;5059659;28;20379;-78
2022/11/12 11:35:28;;;;;;;11.10;6.87;;;;;;;11.64;82.12;98455.69;5047531;28;20225;-78
2022/11/12 11:38:26;;;;;;;10.37;7.23;;;;;;;11.64;82.41;98453.09;5047345;28;20193;-78
2022/11/12 11:41:33;;;;;;;9.60;7.97;;;;;;;11.70;81.87;98463.34;5046602;28;20261;-78
2022/11/12 11:44:25;;;;;;;9.40;7.27;;;;;;;11.72;81.56;98461.53;5059600;28;20656;-77
2022/11/12 11:47:26;;;;;;;11.00;8.40;;;;;;;11.81;81.00;98457.84;5060554;28;20183;-78
2022/11/12 11:50:34;;;;;;;11.87;7.93;;;;;;;11.93;81.12;98460.94;5047004;28;20192;-79
2022/11/12 11:53:28;;;;;;;11.43;7.87;;;;;;;11.92;81.27;98458.38;5059338;28;20188;-80
2022/11/12 11:56:25;;;;;;;12.27;8.80;;;;;;;12.07;81.47;98463.13;5047553;28;20223;-79
2022/11/12 11:59:31;;;;;;;16.43;11.30;;;;;;;11.93;80.90;98455.72;5046504;28;20662;-77
2022/11/12 12:02:51;;;;;;;14.07;9.47;;;;;;;12.11;80.95;98459.56;5046411;28;20674;-78
2022/11/12 12:05:42;;;;;;;11.13;8.20;;;;;;;11.85;81.55;98441.28;5079381;28;20351;-77
2022/11/12 12:08:40;;;;;;;9.40;7.07;;;;;;;11.92;81.01;98464.44;5079889;28;20198;-77
2022/11/12 12:11:41;;;;;;;14.00;10.10;;;;;;;11.99;81.23;98454.72;5059246;28;20177;-79
2022/11/12 12:14:27;;;;;;;13.87;10.17;;;;;;;11.96;80.87;98442.69;5046868;28;20272;-78
2022/11/12 12:17:28;;;;;;;12.20;9.60;;;;;;;11.97;80.67;98438.34;5078490;28;20623;-80
2022/11/12 12:20:48;;;;;;;13.20;9.57;;;;;;;11.96;80.67;98447.00;5078548;28;20310;-79
2022/11/12 12:23:36;;;;;;;12.93;9.63;;;;;;;11.96;80.44;98423.66;5045229;28;20223;-79
2022/11/12 12:26:36;;;;;;;17.10;9.60;;;;;;;11.98;81.51;98447.81;5079035;28;20677;-79
2022/11/12 12:29:30;;;;;;;16.03;10.87;;;;;;;11.89;81.28;98443.72;5046499;28;20194;-79
2022/11/12 12:32:22;;;;;;;14.87;10.50;;;;;;;11.82;81.45;98450.00;5045635;28;20668;-79
2022/11/12 12:35:25;;;;;;;10.80;8.07;;;;;;;11.72;82.36;98439.94;5046501;28;20656;-79
2022/11/12 12:38:31;;;;;;;10.00;6.33;;;;;;;11.78;82.81;98439.75;5046175;28;20218;-80
2022/11/12 12:41:28;;;;;;;10.40;6.70;;;;;;;11.76;83.02;98426.81;5045787;28;20200;-80
2022/11/12 12:44:14;;;;;;;10.83;7.43;;;;;;;11.80;82.53;98417.19;5078517;28;20202;-79
2022/11/12 12:47:01;;;;;;;15.57;8.93;;;;;;;11.65;82.85;98427.97;5078590;28;20538;-79
2022/11/12 12:49:49;;;;;;;12.23;8.70;;;;;;;11.64;83.71;98410.72;5045907;28;20178;-79
2022/11/12 12:52:59;;;;;;;11.40;7.77;;;;;;;11.73;83.44;98419.13;5059595;28;20197;-81
2022/11/12 12:55:50;;;;;;;11.43;6.90;;;;;;;11.76;83.15;98416.44;5046156;28;20326;-78
2022/11/12 12:58:49;;;;;;;10.23;7.70;;;;;;;11.83;82.67;98399.78;5045269;28;20304;-78
2022/11/12 13:01:35;;;;;;;11.43;7.40;;;;;;;11.94;82.54;98415.06;5046289;28;20235;-78
2022/11/12 13:04:54;;;;;;;9.50;6.93;;;;;;;11.80;82.82;98410.28;5046212;28;20220;-81
2022/11/12 13:07:46;;;;;;;11.10;7.80;;;;;;;11.76;83.00;98400.88;5044760;28;20583;-78
2022/11/12 13:10:40;;;;;;;10.80;8.30;;;;;;;11.78;82.95;98393.03;5045053;28;20184;-78
2022/11/12 13:13:32;;;;;;;13.70;9.17;;;;;;;11.78;83.17;98377.47;5046252;28;20188;-78
2022/11/12 13:16:49;;;;;;;11.60;8.07;;;;;;;11.84;82.82;98401.50;5045503;28;20229;-80
2022/11/12 13:19:38;;;;;;;12.83;9.20;;;;;;;11.91;83.24;98387.44;5045486;28;20207;-78
2022/11/12 13:22:23;;;;;;;12.43;9.30;;;;;;;11.88;83.15;98378.91;5078646;28;20683;-79
2022/11/12 13:25:12;;;;;;;13.60;8.70;;;;;;;11.95;82.73;98383.03;5077644;28;20194;-79
2022/11/12 13:28:10;;;;;;;13.00;9.33;;;;;;;12.07;82.66;98369.66;5058880;28;20186;-79
2022/11/12 13:30:57;;;;;;;14.60;9.73;;;;;;;11.97;82.52;98357.88;5046162;28;20340;-79
2022/11/12 13:33:43;;;;;;;14.10;9.43;;;;;;;11.97;82.64;98357.88;5045147;28;20302;-79